Time;durP1;ratioP1;P1;durP2;ratioP2;P2;SDS_P1;SDS_P2;PMS_P1;PMS_P2;Temp;Humidity;BMP_temperature;BMP_pressure;BME280_temperature;BME280_humidity;BME280_pressure;Samples;Min_cycle;Max_cycle;Signal;HPM_P1;HPM_P2
2022/08/10 00:00:20;;;;;;;1.83;1.35;;;;;;;-143.85;100.00;70650.75;5093049;28;20464;-80
2022/08/10 00:02:55;;;;;;;1.75;1.55;;;;;;;-143.85;100.00;70650.75;5092020;28;20080;-79
2022/08/10 00:05:21;;;;;;;1.58;1.13;;;;;;;-143.85;100.00;70650.75;5092752;28;20016;-82
2022/08/10 00:07:47;;;;;;;1.92;1.40;;;;;;;-143.85;100.00;70650.75;5092663;28;20027;-80
2022/08/10 00:10:15;;;;;;;2.67;1.40;;;;;;;-143.85;100.00;70650.75;5091368;28;20027;-81
2022/08/10 00:12:40;;;;;;;;;;;;;;;-143.85;100.00;70650.75;5091814;28;20089;-80
2022/08/10 00:15:07;;;;;;;1.98;1.13;;;;;;;-143.85;100.00;70650.75;5091422;28;20347;-79
2022/08/10 00:17:34;;;;;;;7.15;1.67;;;;;;;-143.85;100.00;70650.75;5091545;28;20457;-80
2022/08/10 00:20:00;;;;;;;2.22;1.40;;;;;;;-143.85;100.00;70650.75;5091444;28;20381;-80
2022/08/10 00:22:25;;;;;;;3.80;1.60;;;;;;;-143.85;100.00;70650.75;5091218;28;20073;-80
2022/08/10 00:24:50;;;;;;;1.55;1.45;;;;;;;-143.85;100.00;70650.75;5091280;28;20035;-80
2022/08/10 00:27:16;;;;;;;1.92;1.45;;;;;;;-143.85;100.00;70650.75;5091234;28;20144;-80
2022/08/10 00:29:41;;;;;;;2.25;1.52;;;;;;;-143.85;100.00;70650.75;5091242;28;20023;-80
2022/08/10 00:32:07;;;;;;;2.05;1.30;;;;;;;-143.85;100.00;70650.75;5091215;28;20052;-80
2022/08/10 00:34:33;;;;;;;2.28;1.40;;;;;;;-143.85;100.00;70650.75;5091242;28;20023;-81
2022/08/10 00:37:00;;;;;;;3.08;1.25;;;;;;;-143.85;100.00;70650.75;5091001;28;20062;-80
2022/08/10 00:39:27;;;;;;;2.00;1.25;;;;;;;-143.85;100.00;70650.75;5092832;28;20063;-80
2022/08/10 00:41:53;;;;;;;17.52;1.48;;;;;;;-143.85;100.00;70650.75;5091138;28;20136;-80
2022/08/10 00:44:18;;;;;;;2.35;1.48;;;;;;;-143.85;100.00;70650.75;5091093;28;20028;-80
2022/08/10 00:46:43;;;;;;;1.40;1.30;;;;;;;-143.85;100.00;70650.75;5091131;28;20028;-80
2022/08/10 00:49:09;;;;;;;1.23;1.13;;;;;;;-143.85;100.00;70650.75;5092209;28;20051;-80
2022/08/10 00:51:34;;;;;;;1.50;1.10;;;;;;;-143.85;100.00;70650.75;5090963;28;20028;-81
2022/08/10 00:54:00;;;;;;;2.55;1.60;;;;;;;-143.85;100.00;70650.75;5091012;28;20027;-82
2022/08/10 00:56:26;;;;;;;2.13;1.52;;;;;;;-143.85;100.00;70650.75;5091155;28;20459;-80
2022/08/10 00:58:53;;;;;;;3.00;1.58;;;;;;;-143.85;100.00;70650.75;5091194;28;20016;-80
2022/08/10 01:01:18;;;;;;;2.38;1.70;;;;;;;-143.85;100.00;70650.75;5090736;28;20103;-80
2022/08/10 01:03:44;;;;;;;2.22;1.27;;;;;;;-143.85;100.00;70650.75;5093591;28;20111;-80
2022/08/10 01:06:21;;;;;;;1.10;1.00;;;;;;;-143.85;100.00;70650.75;5094946;28;20411;-82
2022/08/10 01:08:56;;;;;;;2.77;1.87;;;;;;;-143.85;100.00;70650.75;5095348;28;20497;-82
2022/08/10 01:11:28;;;;;;;2.20;1.63;;;;;;;-143.85;100.00;70650.75;5096287;28;20020;-80
2022/08/10 01:14:00;;;;;;;1.90;1.40;;;;;;;-143.85;100.00;70650.75;5094798;28;20551;-80
2022/08/10 01:16:55;;;;;;;1.60;1.40;;;;;;;-143.85;100.00;70650.75;5094653;28;20491;-80
2022/08/10 01:19:33;;;;;;;3.22;1.60;;;;;;;-143.85;100.00;70650.75;5094807;28;20495;-81
2022/08/10 01:22:17;;;;;;;2.45;1.17;;;;;;;-143.85;100.00;70650.75;5094864;28;20052;-81
2022/08/10 01:25:20;;;;;;;1.65;1.48;;;;;;;-143.85;100.00;70650.75;5094535;28;20020;-82
2022/08/10 01:27:51;;;;;;;2.17;1.42;;;;;;;-143.85;100.00;70650.75;5094408;28;20460;-82
2022/08/10 01:30:19;;;;;;;1.35;1.20;;;;;;;-143.85;100.00;70650.75;5094723;28;20016;-80
2022/08/10 01:32:56;;;;;;;1.33;1.23;;;;;;;-143.85;100.00;70650.75;5094676;28;20027;-81
2022/08/10 01:35:48;;;;;;;2.42;1.60;;;;;;;-143.85;100.00;70650.75;5094336;28;20357;-82
2022/08/10 01:38:17;;;;;;;2.25;1.73;;;;;;;-143.85;100.00;70650.75;5091658;28;20032;-81
2022/08/10 01:40:52;;;;;;;1.70;1.40;;;;;;;-143.85;100.00;70650.75;5094280;28;20555;-81
2022/08/10 01:43:19;;;;;;;1.50;1.30;;;;;;;-143.85;100.00;70650.75;5094476;28;20353;-80
2022/08/10 01:45:48;;;;;;;1.65;1.38;;;;;;;-143.85;100.00;70650.75;5094073;28;20035;-80
2022/08/10 01:48:33;;;;;;;3.08;1.70;;;;;;;-143.85;100.00;70650.75;5095416;28;20040;-81
2022/08/10 01:51:24;;;;;;;1.77;1.50;;;;;;;-143.85;100.00;70650.75;5094209;28;20024;-80
2022/08/10 01:53:54;;;;;;;2.53;1.23;;;;;;;-143.85;100.00;70650.75;5094073;28;20055;-81
2022/08/10 01:56:23;;;;;;;2.45;1.50;;;;;;;-143.85;100.00;70650.75;5095344;28;20074;-82
2022/08/10 01:59:11;;;;;;;3.55;1.60;;;;;;;-143.85;100.00;70650.75;5094504;28;20411;-82
2022/08/10 02:01:44;;;;;;;3.20;1.35;;;;;;;-143.85;100.00;70650.75;5095228;28;20088;-81
2022/08/10 02:04:11;;;;;;;3.28;1.75;;;;;;;-143.85;100.00;70650.75;5095177;28;20115;-80
2022/08/10 02:06:44;;;;;;;2.00;1.77;;;;;;;-143.85;100.00;70650.75;5093683;28;20084;-82
2022/08/10 02:09:14;;;;;;;4.55;1.55;;;;;;;-143.85;100.00;70650.75;5095176;28;20258;-80
2022/08/10 02:11:40;;;;;;;2.63;1.70;;;;;;;-143.85;100.00;70650.75;5094049;28;20035;-82
2022/08/10 02:14:07;;;;;;;2.53;1.30;;;;;;;-143.85;100.00;70650.75;5092599;28;20388;-81
2022/08/10 02:16:35;;;;;;;1.98;1.60;;;;;;;-143.85;100.00;70650.75;5094622;28;20020;-80
2022/08/10 02:19:03;;;;;;;1.73;1.40;;;;;;;-143.85;100.00;70650.75;5093443;28;20020;-80
2022/08/10 02:21:29;;;;;;;2.75;1.23;;;;;;;-143.85;100.00;70650.75;5093488;28;20024;-81
2022/08/10 02:23:59;;;;;;;1.35;1.13;;;;;;;-143.85;100.00;70650.75;5093402;28;20032;-80
2022/08/10 02:26:25;;;;;;;2.47;1.58;;;;;;;-143.85;100.00;70650.75;5093053;28;20028;-80
2022/08/10 02:28:53;;;;;;;1.38;1.27;;;;;;;-143.85;100.00;70650.75;5093359;28;20020;-81
2022/08/10 02:31:21;;;;;;;1.52;1.20;;;;;;;-143.85;100.00;70650.75;5093286;28;20068;-79
2022/08/10 02:33:49;;;;;;;2.08;1.60;;;;;;;-143.85;100.00;70650.75;5092951;28;20045;-80
2022/08/10 02:36:15;;;;;;;2.08;1.58;;;;;;;-143.85;100.00;70650.75;5093179;28;20035;-80
2022/08/10 02:38:54;;;;;;;3.00;1.63;;;;;;;-143.85;100.00;70650.75;5094322;28;20028;-82
2022/08/10 02:41:37;;;;;;;1.48;1.02;;;;;;;-143.85;100.00;70650.75;5093122;28;20031;-81
2022/08/10 02:44:08;;;;;;;1.50;1.40;;;;;;;-143.85;100.00;70650.75;5092855;28;20024;-80
2022/08/10 02:46:41;;;;;;;2.30;1.50;;;;;;;-143.85;100.00;70650.75;5094514;28;20030;-80
2022/08/10 02:49:16;;;;;;;2.20;1.48;;;;;;;-143.85;100.00;70650.75;5092592;28;20044;-80
2022/08/10 02:51:45;;;;;;;2.45;1.65;;;;;;;-143.85;100.00;70650.75;5094249;28;20059;-80
2022/08/10 02:54:17;;;;;;;2.50;1.23;;;;;;;-143.85;100.00;70650.75;5094060;28;20016;-81
2022/08/10 02:57:07;;;;;;;1.30;1.20;;;;;;;-143.85;100.00;70650.75;5092702;28;20024;-80
2022/08/10 02:59:42;;;;;;;2.78;1.40;;;;;;;-143.85;100.00;70650.75;5093013;28;20088;-80
2022/08/10 03:02:13;;;;;;;3.42;1.95;;;;;;;-143.85;100.00;70650.75;5092712;28;20019;-81
2022/08/10 03:04:43;;;;;;;3.90;1.35;;;;;;;-143.85;100.00;70650.75;5094351;28;20016;-81
2022/08/10 03:07:15;;;;;;;2.70;1.40;;;;;;;-143.85;100.00;70650.75;5092525;28;20047;-80
2022/08/10 03:09:42;;;;;;;1.95;1.40;;;;;;;-143.85;100.00;70650.75;5092823;28;20019;-81
2022/08/10 03:12:11;;;;;;;1.58;1.10;;;;;;;-143.85;100.00;70650.75;5094140;28;20069;-81
2022/08/10 03:14:39;;;;;;;1.67;1.58;;;;;;;-143.85;100.00;70650.75;5092544;28;20478;-81
2022/08/10 03:17:05;;;;;;;;;;;;;;;-143.85;100.00;70650.75;5092755;28;20051;-82
2022/08/10 03:19:33;;;;;;;2.67;1.85;;;;;;;-143.85;100.00;70650.75;5092370;28;19908;-80
2022/08/10 03:21:58;;;;;;;1.88;1.42;;;;;;;-143.85;100.00;70650.75;5093694;28;20464;-81
2022/08/10 03:24:27;;;;;;;2.22;2.03;;;;;;;-143.85;100.00;70650.75;5092213;28;20028;-80
2022/08/10 03:26:53;;;;;;;2.10;1.50;;;;;;;-143.85;100.00;70650.75;5091876;28;20019;-81
2022/08/10 03:29:21;;;;;;;3.85;2.13;;;;;;;-143.85;100.00;70650.75;5092099;28;20035;-81
2022/08/10 03:31:48;;;;;;;6.10;1.85;;;;;;;-143.85;100.00;70650.75;5092157;28;20043;-80
2022/08/10 03:34:15;;;;;;;1.80;1.50;;;;;;;-143.85;100.00;70650.75;5093340;28;20031;-80
2022/08/10 03:36:42;;;;;;;11.73;1.35;;;;;;;-143.85;100.00;70650.75;5092007;28;20016;-80
2022/08/10 03:39:08;;;;;;;1.80;1.17;;;;;;;-143.85;100.00;70650.75;5092025;28;20468;-80
2022/08/10 03:41:36;;;;;;;3.03;1.52;;;;;;;-143.85;100.00;70650.75;5091960;28;20107;-80
2022/08/10 03:44:04;;;;;;;5.95;1.52;;;;;;;-143.85;100.00;70650.75;5091862;28;20016;-80
2022/08/10 03:46:33;;;;;;;1.80;1.40;;;;;;;-143.85;100.00;70650.75;5091741;28;20024;-81
2022/08/10 03:49:01;;;;;;;2.33;1.50;;;;;;;-143.85;100.00;70650.75;5091583;28;20059;-80
2022/08/10 03:51:27;;;;;;;5.93;1.75;;;;;;;-143.85;100.00;70650.75;5091719;28;20031;-80
2022/08/10 03:53:53;;;;;;;2.72;1.45;;;;;;;-143.85;100.00;70650.75;5091722;28;20104;-81
2022/08/10 03:56:20;;;;;;;1.80;1.50;;;;;;;-143.85;100.00;70650.75;5091523;28;20535;-80
2022/08/10 03:58:45;;;;;;;1.50;1.20;;;;;;;-143.85;100.00;70650.75;5093234;28;20070;-81
2022/08/10 04:01:13;;;;;;;2.55;1.42;;;;;;;-143.85;100.00;70650.75;5091434;28;20024;-80
2022/08/10 04:03:38;;;;;;;2.13;1.38;;;;;;;-143.85;100.00;70650.75;5091563;28;20169;-81
2022/08/10 04:06:04;;;;;;;1.77;1.67;;;;;;;-143.85;100.00;70650.75;5091530;28;20122;-79
2022/08/10 04:08:31;;;;;;;3.22;1.40;;;;;;;-143.85;100.00;70650.75;5091865;28;20105;-81
2022/08/10 04:10:56;;;;;;;3.90;1.60;;;;;;;-143.85;100.00;70650.75;5091510;28;20023;-81
2022/08/10 04:13:22;;;;;;;1.42;1.23;;;;;;;-143.85;100.00;70650.75;5091457;28;20024;-81
2022/08/10 04:15:48;;;;;;;22.15;2.08;;;;;;;-143.85;100.00;70650.75;5091316;28;20448;-80
2022/08/10 04:18:13;;;;;;;1.73;1.38;;;;;;;-143.85;100.00;70650.75;5092434;28;20115;-81
2022/08/10 04:20:48;;;;;;;1.48;1.02;;;;;;;-143.85;100.00;70650.75;5091382;28;20387;-82
2022/08/10 04:23:27;;;;;;;3.03;1.50;;;;;;;-143.85;100.00;70650.75;5091436;28;20024;-82
2022/08/10 04:25:54;;;;;;;1.88;1.45;;;;;;;-143.85;100.00;70650.75;5091474;28;20024;-81
2022/08/10 04:28:20;;;;;;;1.30;1.17;;;;;;;-143.85;100.00;70650.75;5091205;28;20032;-81
2022/08/10 04:30:48;;;;;;;2.47;1.42;;;;;;;-143.85;100.00;70650.75;5091295;28;20020;-81
2022/08/10 04:33:17;;;;;;;2.30;1.48;;;;;;;-143.85;100.00;70650.75;5092499;28;20028;-82
2022/08/10 04:35:44;;;;;;;3.15;1.65;;;;;;;-143.85;100.00;70650.75;5091193;28;20016;-81
2022/08/10 04:38:11;;;;;;;2.85;1.35;;;;;;;-143.85;100.00;70650.75;5092848;28;20486;-82
2022/08/10 04:40:37;;;;;;;1.58;1.48;;;;;;;-143.85;100.00;70650.75;5095467;28;20070;-81
2022/08/10 04:43:05;;;;;;;2.97;1.77;;;;;;;-143.85;100.00;70650.75;5096583;28;20452;-80
2022/08/10 04:45:30;;;;;;;;;;;;;;;-143.85;100.00;70650.75;5097225;28;20028;-80
2022/08/10 04:47:56;;;;;;;9.57;1.73;;;;;;;-143.85;100.00;70650.75;5096576;28;20276;-80
2022/08/10 04:50:21;;;;;;;1.15;1.15;;;;;;;-143.85;100.00;70650.75;5095507;28;20028;-81
2022/08/10 04:52:47;;;;;;;3.10;1.50;;;;;;;-143.85;100.00;70650.75;5095225;28;20038;-82
2022/08/10 04:55:12;;;;;;;1.23;1.13;;;;;;;-143.85;100.00;70650.75;5096384;28;20045;-81
2022/08/10 04:57:38;;;;;;;1.95;1.65;;;;;;;-143.85;100.00;70650.75;5094683;28;20020;-80
2022/08/10 05:00:04;;;;;;;3.97;1.50;;;;;;;-143.85;100.00;70650.75;5094964;28;20020;-81
2022/08/10 05:02:29;;;;;;;1.30;1.20;;;;;;;-143.85;100.00;70650.75;5094990;28;20036;-84
2022/08/10 05:04:55;;;;;;;3.00;1.70;;;;;;;-143.85;100.00;70650.75;5095286;28;20468;-85
2022/08/10 05:07:20;;;;;;;1.75;1.63;;;;;;;-143.85;100.00;70650.75;5095022;28;20513;-84
2022/08/10 05:09:48;;;;;;;2.17;1.33;;;;;;;-143.85;100.00;70650.75;5095112;28;20450;-83
2022/08/10 05:12:13;;;;;;;;;;;;;;;-143.85;100.00;70650.75;5095475;28;20368;-83
2022/08/10 05:14:39;;;;;;;4.53;1.40;;;;;;;-143.85;100.00;70650.75;5096165;28;19908;-83
2022/08/10 05:17:04;;;;;;;3.28;1.92;;;;;;;-143.85;100.00;70650.75;5095053;28;20156;-82
2022/08/10 05:19:30;;;;;;;1.20;1.10;;;;;;;-143.85;100.00;70650.75;5094668;28;20035;-83
2022/08/10 05:21:55;;;;;;;3.10;1.48;;;;;;;-143.85;100.00;70650.75;5094730;28;20031;-82
2022/08/10 05:24:21;;;;;;;2.00;1.30;;;;;;;-143.85;100.00;70650.75;5094613;28;20092;-84
2022/08/10 05:26:46;;;;;;;3.92;1.80;;;;;;;-143.85;100.00;70650.75;5095675;28;20102;-82
2022/08/10 05:29:11;;;;;;;2.35;1.85;;;;;;;-143.85;100.00;70650.75;5094690;28;20012;-82
2022/08/10 05:31:37;;;;;;;2.40;1.30;;;;;;;-143.85;100.00;70650.75;5095179;28;20107;-83
2022/08/10 05:34:02;;;;;;;1.00;1.00;;;;;;;-143.85;100.00;70650.75;5094757;28;20467;-83
2022/08/10 05:36:28;;;;;;;2.60;1.40;;;;;;;-143.85;100.00;70650.75;5094139;28;20028;-82
2022/08/10 05:38:54;;;;;;;3.85;1.90;;;;;;;-143.85;100.00;70650.75;5094406;28;20383;-82
2022/08/10 05:41:20;;;;;;;1.60;1.35;;;;;;;-143.85;100.00;70650.75;5094250;28;20063;-82
2022/08/10 05:43:46;;;;;;;4.68;1.70;;;;;;;-143.85;100.00;70650.75;5094332;28;20119;-83
2022/08/10 05:46:12;;;;;;;3.97;1.48;;;;;;;-143.85;100.00;70650.75;5094547;28;20360;-82
2022/08/10 05:48:39;;;;;;;1.50;1.38;;;;;;;-143.85;100.00;70650.75;5093478;28;20046;-82
2022/08/10 05:51:05;;;;;;;3.58;1.10;;;;;;;-143.85;100.00;70650.75;5094101;28;20028;-81
2022/08/10 05:53:32;;;;;;;4.55;2.13;;;;;;;-143.85;100.00;70650.75;5095368;28;20027;-80
2022/08/10 05:55:58;;;;;;;1.33;1.20;;;;;;;-143.85;100.00;70650.75;5093884;28;20012;-81
2022/08/10 05:58:24;;;;;;;1.73;1.45;;;;;;;-143.85;100.00;70650.75;5095505;28;20016;-82
2022/08/10 06:00:54;;;;;;;2.42;1.48;;;;;;;-143.85;100.00;70650.75;5095065;28;20032;-83
2022/08/10 06:03:25;;;;;;;1.35;1.25;;;;;;;-143.85;100.00;70650.75;5093893;28;20391;-83
2022/08/10 06:05:54;;;;;;;1.65;1.42;;;;;;;-143.85;100.00;70650.75;5093970;28;20236;-80
2022/08/10 06:08:23;;;;;;;2.08;1.50;;;;;;;-143.85;100.00;70650.75;5094908;28;20016;-82
2022/08/10 06:10:52;;;;;;;2.58;1.45;;;;;;;-143.85;100.00;70650.75;5094972;28;20019;-80
2022/08/10 06:16:06;;;;;;;;;;;;;;;-143.85;100.00;70650.75;5095535;28;20031;-80
2022/08/10 06:18:31;;;;;;;1.52;1.38;;;;;;;-143.85;100.00;70650.75;5095071;28;19991;-81
2022/08/10 06:20:59;;;;;;;1.92;1.08;;;;;;;-143.85;100.00;70650.75;5093265;28;20107;-80
2022/08/10 06:23:25;;;;;;;;;;;;;;;-143.85;100.00;70650.75;5093952;28;20055;-81
2022/08/10 06:25:50;;;;;;;1.67;1.52;;;;;;;-143.85;100.00;70650.75;5093457;28;20424;-80
2022/08/10 06:28:19;;;;;;;1.15;1.05;;;;;;;-143.85;100.00;70650.75;5093752;28;20111;-80
2022/08/10 06:30:46;;;;;;;1.27;1.13;;;;;;;-143.85;100.00;70650.75;5093303;28;20111;-80
2022/08/10 06:33:13;;;;;;;1.48;0.88;;;;;;;-143.85;100.00;70650.75;5094800;28;20016;-80
2022/08/10 06:35:41;;;;;;;1.33;1.23;;;;;;;-143.85;100.00;70650.75;5092873;28;20119;-81
2022/08/10 06:38:08;;;;;;;12.30;2.13;;;;;;;-143.85;100.00;70650.75;5094660;28;20463;-79
2022/08/10 06:40:38;;;;;;;1.30;1.20;;;;;;;-143.85;100.00;70650.75;5093105;28;20051;-79
2022/08/10 06:43:09;;;;;;;2.25;1.75;;;;;;;-143.85;100.00;70650.75;5094265;28;20103;-80
2022/08/10 06:45:41;;;;;;;1.60;1.02;;;;;;;-143.85;100.00;70650.75;5094376;28;20016;-81
2022/08/10 06:48:20;;;;;;;3.40;1.38;;;;;;;-143.85;100.00;70650.75;5093248;28;20450;-81
2022/08/10 06:50:49;;;;;;;1.20;1.05;;;;;;;-143.85;100.00;70650.75;5093102;28;20024;-81
2022/08/10 06:53:20;;;;;;;2.22;1.05;;;;;;;-143.85;100.00;70650.75;5092867;28;20546;-82
2022/08/10 06:55:56;;;;;;;1.25;1.15;;;;;;;-143.85;100.00;70650.75;5092714;28;20378;-82
2022/08/10 06:58:25;;;;;;;1.50;1.40;;;;;;;-143.85;100.00;70650.75;5092720;28;20141;-80
2022/08/10 07:00:52;;;;;;;6.95;1.60;;;;;;;-143.85;100.00;70650.75;5092109;28;20479;-80
2022/08/10 07:03:20;;;;;;;1.77;1.27;;;;;;;-143.85;100.00;70650.75;5092688;28;20375;-80
2022/08/10 07:05:49;;;;;;;1.55;1.00;;;;;;;-143.85;100.00;70650.75;5092717;28;20020;-81
2022/08/10 07:08:20;;;;;;;4.00;1.15;;;;;;;-143.85;100.00;70650.75;5092681;28;20020;-81
2022/08/10 07:10:48;;;;;;;2.08;1.30;;;;;;;-143.85;100.00;70650.75;5093695;28;20384;-80
2022/08/10 07:13:19;;;;;;;1.63;1.30;;;;;;;-143.85;100.00;70650.75;5092710;28;20027;-81
2022/08/10 07:15:47;;;;;;;1.83;1.20;;;;;;;-143.85;100.00;70650.75;5092668;28;20383;-80
2022/08/10 07:18:14;;;;;;;4.15;0.98;;;;;;;-143.85;100.00;70650.75;5092378;28;20028;-82
2022/08/10 07:20:41;;;;;;;1.57;1.30;;;;;;;-143.85;100.00;70650.75;5092467;28;20031;-81
2022/08/10 07:23:10;;;;;;;2.17;1.13;;;;;;;-143.85;100.00;70650.75;5092275;28;20024;-81
2022/08/10 07:25:38;;;;;;;2.25;1.10;;;;;;;-143.85;100.00;70650.75;5093527;28;20032;-81
2022/08/10 07:28:04;;;;;;;1.50;1.40;;;;;;;-143.85;100.00;70650.75;5092216;28;20016;-81
2022/08/10 07:30:35;;;;;;;1.08;0.98;;;;;;;-143.85;100.00;70650.75;5092152;28;20085;-81
2022/08/10 07:33:03;;;;;;;2.50;1.35;;;;;;;-143.85;100.00;70650.75;5091705;28;20028;-81
2022/08/10 07:35:31;;;;;;;1.30;1.20;;;;;;;-143.85;100.00;70650.75;5093255;28;20023;-80
2022/08/10 07:38:01;;;;;;;1.33;1.17;;;;;;;-143.85;100.00;70650.75;5093087;28;20028;-81
2022/08/10 07:40:28;;;;;;;1.83;1.02;;;;;;;-143.85;100.00;70650.75;5093494;28;20018;-80
2022/08/10 07:42:58;;;;;;;2.05;1.40;;;;;;;-143.85;100.00;70650.75;5091638;28;20024;-80
2022/08/10 07:45:30;;;;;;;1.50;1.20;;;;;;;-143.85;100.00;70650.75;5091859;28;20490;-80
2022/08/10 07:48:02;;;;;;;1.02;1.00;;;;;;;-143.85;100.00;70650.75;5091742;28;20122;-79
2022/08/10 07:50:29;;;;;;;1.17;1.00;;;;;;;-143.85;100.00;70650.75;5091715;28;20051;-80
2022/08/10 07:52:59;;;;;;;;;;;;;;;-143.85;100.00;70650.75;5092794;28;20028;-83
2022/08/10 07:55:24;;;;;;;5.88;1.85;;;;;;;-143.85;100.00;70650.75;5091618;28;19921;-81
2022/08/10 07:57:53;;;;;;;2.33;1.13;;;;;;;-143.85;100.00;70650.75;5091588;28;20031;-82
2022/08/10 08:00:19;;;;;;;6.78;1.38;;;;;;;-143.85;100.00;70650.75;5092893;28;20088;-82
2022/08/10 08:02:50;;;;;;;1.20;1.10;;;;;;;-143.85;100.00;70650.75;5091551;28;20016;-84
2022/08/10 08:05:19;;;;;;;1.05;1.02;;;;;;;-143.85;100.00;70650.75;5092145;28;20039;-80
2022/08/10 08:07:47;;;;;;;3.42;0.98;;;;;;;-143.85;100.00;70650.75;5092876;28;20504;-81
2022/08/10 08:10:15;;;;;;;1.77;0.75;;;;;;;-143.85;100.00;70650.75;5092819;28;20023;-81
2022/08/10 08:12:43;;;;;;;1.52;1.17;;;;;;;-143.85;100.00;70650.75;5091375;28;20064;-81
2022/08/10 08:15:12;;;;;;;1.35;1.13;;;;;;;-143.85;100.00;70650.75;5090135;28;20028;-82
2022/08/10 08:17:40;;;;;;;1.73;1.33;;;;;;;-143.85;100.00;70650.75;5091352;28;20020;-80
2022/08/10 08:20:06;;;;;;;;;;;;;;;-143.85;100.00;70650.75;5091583;28;20024;-80
2022/08/10 08:22:32;;;;;;;2.03;1.40;;;;;;;-143.85;100.00;70650.75;5091325;28;19904;-80
2022/08/10 08:24:58;;;;;;;1.40;1.30;;;;;;;-143.85;100.00;70650.75;5091273;28;20494;-80
2022/08/10 08:27:26;;;;;;;1.83;1.17;;;;;;;-143.85;100.00;70650.75;5092240;28;20032;-81
2022/08/10 08:29:52;;;;;;;2.35;1.30;;;;;;;-143.85;100.00;70650.75;5092753;28;20058;-81
2022/08/10 08:32:23;;;;;;;1.05;1.05;;;;;;;-143.85;100.00;70650.75;5091251;28;20468;-79
2022/08/10 08:34:53;;;;;;;1.75;1.58;;;;;;;-143.85;100.00;70650.75;5091188;28;20039;-81
2022/08/10 08:37:20;;;;;;;2.42;1.27;;;;;;;-143.85;100.00;70650.75;5091164;28;20024;-80
2022/08/10 08:39:47;;;;;;;2.08;1.35;;;;;;;-143.85;100.00;70650.75;5091353;28;20048;-80
2022/08/10 08:42:34;;;;;;;3.85;1.33;;;;;;;-143.85;100.00;70650.75;5091147;28;20032;-79
2022/08/10 08:45:12;;;;;;;1.20;1.10;;;;;;;-143.85;100.00;70650.75;5092483;28;20392;-80
2022/08/10 08:47:43;;;;;;;3.72;1.27;;;;;;;-143.85;100.00;70650.75;5092274;28;20047;-80
2022/08/10 08:50:39;;;;;;;2.15;1.23;;;;;;;-143.85;100.00;70650.75;5091294;28;20134;-79
2022/08/10 08:53:27;;;;;;;2.73;1.10;;;;;;;-143.85;100.00;70650.75;5091050;28;20478;-79
2022/08/10 08:56:13;;;;;;;2.63;0.98;;;;;;;-143.85;100.00;70650.75;5091292;28;20031;-79
2022/08/10 08:58:59;;;;;;;1.13;1.00;;;;;;;-143.85;100.00;70650.75;5091230;28;20379;-80
2022/08/10 09:01:57;;;;;;;1.58;1.15;;;;;;;-143.85;100.00;70650.75;5092495;28;20031;-80
2022/08/10 09:04:47;;;;;;;1.67;1.27;;;;;;;-143.85;100.00;70650.75;5092187;28;20020;-80
2022/08/10 09:07:18;;;;;;;2.67;1.75;;;;;;;-143.85;100.00;70650.75;5092171;28;20024;-80
2022/08/10 09:10:00;;;;;;;1.27;1.05;;;;;;;-143.85;100.00;70650.75;5092359;28;20024;-80
2022/08/10 09:12:51;;;;;;;2.15;1.25;;;;;;;-143.85;100.00;70650.75;5092279;28;20483;-81
2022/08/10 09:15:28;;;;;;;1.65;1.38;;;;;;;-143.85;100.00;70650.75;5091005;28;20024;-81
2022/08/10 09:18:11;;;;;;;6.85;1.60;;;;;;;-143.85;100.00;70650.75;5090722;28;20028;-82
2022/08/10 09:20:48;;;;;;;2.05;1.65;;;;;;;-143.85;100.00;70650.75;5092478;28;20048;-80
2022/08/10 09:23:38;;;;;;;1.65;1.25;;;;;;;-143.85;100.00;70650.75;5091217;28;20046;-80
2022/08/10 09:26:19;;;;;;;1.35;1.23;;;;;;;-143.85;100.00;70650.75;5094461;28;20059;-81
2022/08/10 09:28:44;;;;;;;2.00;1.88;;;;;;;-143.85;100.00;70650.75;5096330;28;20028;-80
2022/08/10 09:31:11;;;;;;;1.48;1.27;;;;;;;-143.85;100.00;70650.75;5094529;28;20027;-80
2022/08/10 09:33:48;;;;;;;2.00;1.50;;;;;;;-143.85;100.00;70650.75;5094564;28;20047;-80
2022/08/10 09:36:16;;;;;;;1.65;1.20;;;;;;;-143.85;100.00;70650.75;5094355;28;20024;-81
2022/08/10 09:38:57;;;;;;;4.97;1.20;;;;;;;-143.85;100.00;70650.75;5094222;28;20024;-81
2022/08/10 09:41:32;;;;;;;1.52;1.42;;;;;;;-143.85;100.00;70650.75;5094319;28;20055;-82
2022/08/10 09:44:17;;;;;;;1.20;1.05;;;;;;;-143.85;100.00;70650.75;5094229;28;20081;-81
2022/08/10 09:47:11;;;;;;;1.83;1.38;;;;;;;-143.85;100.00;70650.75;5094210;28;20028;-82
2022/08/10 09:49:55;;;;;;;1.55;1.20;;;;;;;-143.85;100.00;70650.75;5094381;28;20478;-81
2022/08/10 09:52:39;;;;;;;1.13;1.00;;;;;;;-143.85;100.00;70650.75;5094305;28;20426;-81
2022/08/10 09:55:28;;;;;;;3.70;1.30;;;;;;;-143.85;100.00;70650.75;5094036;28;20107;-81
2022/08/10 09:58:20;;;;;;;1.55;1.42;;;;;;;-143.85;100.00;70650.75;5095391;28;20024;-82
2022/08/10 10:01:09;;;;;;;1.55;1.40;;;;;;;-143.85;100.00;70650.75;5093874;28;20055;-81
2022/08/10 10:03:45;;;;;;;1.38;1.27;;;;;;;-143.85;100.00;70650.75;5095195;28;20016;-80
2022/08/10 10:06:24;;;;;;;2.03;1.45;;;;;;;-143.85;100.00;70650.75;5094142;28;20157;-82
2022/08/10 10:09:02;;;;;;;2.17;1.60;;;;;;;-143.85;100.00;70650.75;5095079;28;20024;-80
2022/08/10 10:11:41;;;;;;;1.20;1.10;;;;;;;-143.85;100.00;70650.75;5093683;28;20501;-81
2022/08/10 10:14:33;;;;;;;1.40;1.13;;;;;;;-143.85;100.00;70650.75;5093653;28;20144;-81
2022/08/10 10:17:06;;;;;;;1.73;1.30;;;;;;;-143.85;100.00;70650.75;5095210;28;20080;-83
2022/08/10 10:19:38;;;;;;;1.25;1.15;;;;;;;-143.85;100.00;70650.75;5095048;28;20046;-82
2022/08/10 10:22:32;;;;;;;2.97;1.45;;;;;;;-143.85;100.00;70650.75;5093682;28;20028;-81
2022/08/10 10:25:02;;;;;;;6.43;2.75;;;;;;;-143.85;100.00;70650.75;5095217;28;20012;-81
2022/08/10 10:27:49;;;;;;;3.50;1.90;;;;;;;-143.85;100.00;70650.75;5093670;28;20034;-81
2022/08/10 10:30:18;;;;;;;3.65;1.38;;;;;;;-143.85;100.00;70650.75;5093535;28;20097;-80
2022/08/10 10:33:06;;;;;;;1.00;1.00;;;;;;;-143.85;100.00;70650.75;5094847;28;20102;-80
2022/08/10 10:35:37;;;;;;;0.77;0.75;;;;;;;-143.85;100.00;70650.75;5092591;28;20020;-81
2022/08/10 10:38:07;;;;;;;1.25;0.93;;;;;;;-143.85;100.00;70650.75;5093182;28;20114;-80
2022/08/10 10:40:58;;;;;;;0.90;0.80;;;;;;;-143.85;100.00;70650.75;5094688;28;20019;-80
2022/08/10 10:43:51;;;;;;;1.05;0.93;;;;;;;-143.85;100.00;70650.75;5093101;28;20152;-80
2022/08/10 10:46:22;;;;;;;3.95;0.95;;;;;;;-143.85;100.00;70650.75;5093471;28;20016;-80
2022/08/10 10:49:03;;;;;;;1.02;0.90;;;;;;;-143.85;100.00;70650.75;5093001;28;20381;-80
2022/08/10 10:51:48;;;;;;;2.78;0.70;;;;;;;-143.85;100.00;70650.75;5092845;28;20023;-80
2022/08/10 10:54:37;;;;;;;1.20;0.88;;;;;;;-143.85;100.00;70650.75;5092774;28;20069;-82
2022/08/10 10:57:18;;;;;;;1.23;0.90;;;;;;;-143.85;100.00;70650.75;5083127;28;20032;-82
2022/08/10 11:00:14;;;;;;;0.70;0.70;;;;;;;-143.85;100.00;70650.75;5094395;28;20032;-82
2022/08/10 11:03:14;;;;;;;1.77;1.00;;;;;;;;;;5069545;28;20392;-80
2022/08/10 11:05:51;;;;;;;1.75;1.55;;;;;;;;;;5068167;28;20043;-83
2022/08/10 11:08:25;;;;;;;0.80;0.80;;;;;;;;;;5068420;28;20021;-82
2022/08/10 11:10:55;;;;;;;1.35;1.25;;;;;;;;;;5068388;28;20048;-80
2022/08/10 11:13:33;;;;;;;0.93;0.93;;;;;;;;;;5068458;28;20455;-83
2022/08/10 11:16:04;;;;;;;0.75;0.75;;;;;;;;;;5069701;28;20009;-81
2022/08/10 11:18:32;;;;;;;1.33;0.90;;;;;;;;;;5069518;28;20016;-80
2022/08/10 11:21:11;;;;;;;0.70;0.70;;;;;;;;;;5069832;28;20095;-81
2022/08/10 11:23:45;;;;;;;0.90;0.80;;;;;;;;;;5068157;28;20050;-81
2022/08/10 11:26:31;;;;;;;1.40;1.20;;;;;;;;;;5069348;28;20028;-80
2022/08/10 11:29:06;;;;;;;6.32;1.15;;;;;;;;;;5063738;28;20025;-80
2022/08/10 11:31:37;;;;;;;1.77;1.05;;;;;;;;;;5068603;28;20047;-80
2022/08/10 11:34:05;;;;;;;1.02;0.90;;;;;;;;;;5067835;28;20124;-84
2022/08/10 11:36:37;;;;;;;0.85;0.80;;;;;;;;;;5067836;28;20015;-81
2022/08/10 11:39:22;;;;;;;1.90;1.20;;;;;;;;;;5067829;28;20024;-80
2022/08/10 11:41:50;;;;;;;1.13;0.90;;;;;;;;;;5066951;28;20036;-83
2022/08/10 11:44:21;;;;;;;1.00;1.00;;;;;;;;;;5067774;28;20073;-81